Time;durP1;ratioP1;P1;durP2;ratioP2;P2;SDS_P1;SDS_P2;PMS_P1;PMS_P2;Temp;Humidity;BMP_temperature;BMP_pressure;BME280_temperature;BME280_humidity;BME280_pressure;Samples;Min_cycle;Max_cycle;Signal;HPM_P1;HPM_P2
2022/12/01 00:00:00;;;;;;;5.87;5.37;;;;;;;7.41;100.00;99945.16;5091982;28;20750;-66
2022/12/01 00:02:29;;;;;;;5.63;5.13;;;;;;;7.44;100.00;99944.84;5091789;28;20254;-67
2022/12/01 00:04:57;;;;;;;5.60;5.23;;;;;;;7.45;100.00;99946.50;5092297;28;20639;-67
2022/12/01 00:07:23;;;;;;;5.53;5.13;;;;;;;7.50;100.00;99945.00;5079089;28;20192;-67
2022/12/01 00:12:34;;;;;;;6.07;5.60;;;;;;;7.38;100.00;99933.13;5072228;28;20563;-67
2022/12/01 00:15:01;;;;;;;6.50;6.07;;;;;;;7.24;100.00;99927.66;5072204;28;20247;-66
2022/12/01 00:17:29;;;;;;;6.30;5.90;;;;;;;7.29;100.00;99928.81;5071561;28;20655;-66
2022/12/01 00:19:57;;;;;;;6.80;6.30;;;;;;;7.37;100.00;99938.56;5072204;28;20360;-66
2022/12/01 00:22:24;;;;;;;6.60;6.13;;;;;;;7.31;100.00;99929.47;5083146;28;20215;-67
2022/12/01 00:24:50;;;;;;;7.17;6.77;;;;;;;7.37;100.00;99933.28;5091788;28;20204;-66
2022/12/01 00:27:17;;;;;;;8.37;7.00;;;;;;;7.42;100.00;99930.97;5091647;28;20226;-66
2022/12/01 00:29:45;;;;;;;6.80;6.20;;;;;;;7.31;100.00;99926.81;5088464;28;20196;-66
2022/12/01 00:32:12;;;;;;;7.40;6.77;;;;;;;7.32;100.00;99917.09;5072366;28;20250;-66
2022/12/01 00:34:38;;;;;;;6.63;6.23;;;;;;;7.39;100.00;99931.31;5071475;28;20235;-66
2022/12/01 00:37:06;;;;;;;6.93;6.23;;;;;;;7.40;100.00;99938.25;5071490;28;20253;-66
2022/12/01 00:39:33;;;;;;;6.33;5.93;;;;;;;7.31;100.00;99928.66;5071725;28;20188;-67
2022/12/01 00:42:00;;;;;;;7.17;6.67;;;;;;;7.21;100.00;99923.53;5071673;28;20320;-67
2022/12/01 00:44:26;;;;;;;6.30;5.90;;;;;;;7.16;100.00;99932.94;5071664;28;20196;-66
2022/12/01 00:46:53;;;;;;;5.40;5.10;;;;;;;7.22;100.00;99919.09;5071723;28;20187;-66
2022/12/01 00:49:20;;;;;;;5.00;4.70;;;;;;;7.26;100.00;99921.22;5074582;28;20253;-66
2022/12/01 00:51:46;;;;;;;5.60;5.20;;;;;;;7.06;100.00;99914.59;5075188;28;20196;-66
2022/12/01 00:54:14;;;;;;;4.90;4.60;;;;;;;6.95;100.00;99912.28;5074983;28;20659;-66
2022/12/01 00:56:41;;;;;;;4.67;4.37;;;;;;;7.08;100.00;99919.72;5075040;28;20195;-66
2022/12/01 00:59:08;;;;;;;4.13;3.93;;;;;;;7.15;100.00;99918.09;5075225;28;20612;-66
2022/12/01 01:01:34;;;;;;;4.70;4.50;;;;;;;7.26;100.00;99910.66;5074874;28;20643;-66
2022/12/01 01:04:01;;;;;;;3.77;3.57;;;;;;;7.20;100.00;99903.41;5075194;28;20191;-66
2022/12/01 01:06:28;;;;;;;4.20;4.00;;;;;;;7.12;100.00;99900.75;5080869;28;20194;-66
2022/12/01 01:08:55;;;;;;;3.73;3.53;;;;;;;7.25;100.00;99905.53;5095452;28;20192;-66
2022/12/01 01:11:23;;;;;;;3.57;3.37;;;;;;;7.37;100.00;99899.75;5095070;28;20670;-66
2022/12/01 01:13:49;;;;;;;3.53;3.30;;;;;;;7.42;100.00;99893.97;5095229;28;20253;-66
2022/12/01 01:16:18;;;;;;;3.20;3.00;;;;;;;7.21;100.00;99896.28;5095305;28;20191;-66
2022/12/01 01:18:45;;;;;;;3.27;3.07;;;;;;;7.18;100.00;99886.88;5094949;28;20288;-66
2022/12/01 01:21:14;;;;;;;3.47;3.30;;;;;;;7.12;100.00;99894.63;5095105;28;20351;-66
2022/12/01 01:23:42;;;;;;;3.63;3.43;;;;;;;7.23;100.00;99881.09;5095013;28;20191;-66
2022/12/01 01:26:12;;;;;;;3.37;3.17;;;;;;;7.32;100.00;99895.97;5094769;28;20280;-66
2022/12/01 01:28:40;;;;;;;2.97;2.87;;;;;;;7.35;100.00;99885.06;5095071;28;20613;-66
2022/12/01 01:31:08;;;;;;;3.20;3.10;;;;;;;7.23;100.00;99870.53;5079784;28;20278;-66
2022/12/01 01:33:35;;;;;;;3.50;3.20;;;;;;;7.10;100.00;99872.84;5075030;28;20198;-65
2022/12/01 01:36:03;;;;;;;2.90;2.80;;;;;;;7.05;100.00;99880.41;5075228;28;20249;-66
2022/12/01 01:38:31;;;;;;;3.13;3.03;;;;;;;6.85;100.00;99879.91;5074540;28;20199;-65
2022/12/01 01:40:58;;;;;;;3.57;3.37;;;;;;;6.99;100.00;99870.53;5075486;28;20192;-65
2022/12/01 01:43:45;;;;;;;3.40;3.20;;;;;;;7.16;100.00;99872.19;5074730;28;20192;-65
2022/12/01 01:46:14;;;;;;;3.43;3.10;;;;;;;7.21;100.00;99869.88;5074227;28;20563;-65
2022/12/01 01:48:43;;;;;;;3.13;3.03;;;;;;;7.23;100.00;99870.53;5073966;28;20203;-66
2022/12/01 01:51:13;;;;;;;3.13;2.97;;;;;;;7.13;100.00;99877.78;5074030;28;20741;-66
2022/12/01 01:53:40;;;;;;;2.83;2.73;;;;;;;7.22;100.00;99876.81;5073917;28;20671;-66
2022/12/01 01:56:08;;;;;;;2.80;2.70;;;;;;;7.32;100.00;99867.72;5074540;28;20195;-65
2022/12/01 01:58:37;;;;;;;2.63;2.50;;;;;;;7.39;100.00;99878.47;5073480;28;20291;-65
2022/12/01 02:01:06;;;;;;;3.03;2.83;;;;;;;7.42;100.00;99878.94;5073200;28;20231;-66
2022/12/01 02:03:35;;;;;;;2.20;2.10;;;;;;;7.30;100.00;99868.88;5074013;28;20187;-66
2022/12/01 02:06:02;;;;;;;2.80;2.70;;;;;;;7.32;100.00;99877.47;5075901;28;20192;-66
2022/12/01 02:08:29;;;;;;;2.47;2.37;;;;;;;7.23;100.00;99873.19;5094096;28;20255;-66
2022/12/01 02:11:09;;;;;;;2.70;2.60;;;;;;;7.17;100.00;99874.66;5093904;28;20716;-66
2022/12/01 02:13:50;;;;;;;1.87;1.83;;;;;;;7.17;100.00;99876.47;5094437;28;20637;-66
2022/12/01 02:16:25;;;;;;;2.43;2.33;;;;;;;7.13;100.00;99864.56;5094097;28;20240;-66
2022/12/01 02:19:03;;;;;;;2.70;2.60;;;;;;;6.93;100.00;99866.72;5093931;28;20287;-66
2022/12/01 02:21:45;;;;;;;2.70;2.57;;;;;;;7.00;100.00;99872.16;5094175;28;20280;-66
2022/12/01 02:24:59;;;;;;;2.30;2.20;;;;;;;7.08;100.00;99861.59;5093991;28;20233;-66
2022/12/01 02:27:42;;;;;;;2.30;2.20;;;;;;;6.83;100.00;99860.78;5012079;28;20186;-66
2022/12/01 02:30:13;;;;;;;3.33;3.03;;;;;;;7.00;100.00;99862.44;5011810;28;20190;-66
2022/12/01 02:32:52;;;;;;;2.87;2.77;;;;;;;6.95;100.00;99856.00;5054155;28;20196;-66
2022/12/01 02:35:25;;;;;;;2.67;2.57;;;;;;;7.09;100.00;99852.69;5073735;28;20184;-65
2022/12/01 02:38:03;;;;;;;2.47;2.37;;;;;;;7.08;100.00;99832.56;5073835;28;20190;-65
2022/12/01 02:40:33;;;;;;;2.90;2.60;;;;;;;7.09;100.00;99850.88;5073036;28;20184;-65
2022/12/01 02:43:05;;;;;;;3.13;2.93;;;;;;;7.12;100.00;99844.44;5074364;28;20229;-65
2022/12/01 02:45:40;;;;;;;3.17;2.90;;;;;;;7.24;100.00;99848.41;5073304;28;20261;-65
2022/12/01 02:48:12;;;;;;;2.67;2.57;;;;;;;7.18;100.00;99849.09;5073001;28;20233;-65
2022/12/01 02:50:41;;;;;;;3.00;2.80;;;;;;;7.11;100.00;99840.16;5072812;28;20187;-65
2022/12/01 02:53:10;;;;;;;3.10;2.90;;;;;;;7.20;100.00;99850.56;5073374;28;20196;-66
2022/12/01 02:55:37;;;;;;;3.00;2.77;;;;;;;7.18;100.00;99841.16;5073002;28;20195;-65
2022/12/01 02:58:13;;;;;;;2.57;2.37;;;;;;;7.13;100.00;99843.44;5072723;28;20667;-65
2022/12/01 03:00:40;;;;;;;2.20;2.10;;;;;;;7.21;100.00;99838.16;5073093;28;20191;-65
2022/12/01 03:03:29;;;;;;;2.10;2.00;;;;;;;7.26;100.00;99825.31;5072560;28;20220;-65
2022/12/01 03:06:04;;;;;;;2.40;2.20;;;;;;;7.36;100.00;99841.78;5073358;28;20619;-65
2022/12/01 03:08:44;;;;;;;2.20;2.10;;;;;;;7.29;100.00;99840.78;5093967;28;20273;-65
2022/12/01 03:11:25;;;;;;;1.67;1.67;;;;;;;7.43;100.00;99834.84;5092752;28;20187;-64
2022/12/01 03:14:06;;;;;;;2.50;2.10;;;;;;;7.48;100.00;99833.31;5092755;28;20678;-65
2022/12/01 03:16:40;;;;;;;2.20;2.10;;;;;;;7.40;100.00;99843.94;5093631;28;20188;-65
2022/12/01 03:19:14;;;;;;;2.00;1.80;;;;;;;7.27;100.00;99840.16;5093884;28;20279;-65
2022/12/01 03:21:44;;;;;;;1.70;1.70;;;;;;;7.33;100.00;99836.84;5092800;28;20640;-65
2022/12/01 03:24:14;;;;;;;2.30;1.50;;;;;;;7.15;100.00;99839.63;5092531;28;20183;-66
2022/12/01 03:26:44;;;;;;;1.87;1.77;;;;;;;7.28;100.00;99834.72;5092967;28;20194;-65
2022/12/01 03:29:14;;;;;;;1.40;1.40;;;;;;;7.13;100.00;99833.72;5093388;28;20188;-66
2022/12/01 03:31:45;;;;;;;1.57;1.57;;;;;;;6.95;100.00;99838.34;5073333;28;20195;-66
2022/12/01 03:34:17;;;;;;;1.77;1.77;;;;;;;6.97;100.00;99846.91;5072501;28;20187;-65
2022/12/01 03:36:48;;;;;;;1.70;1.60;;;;;;;7.08;100.00;99838.69;5072141;28;20645;-65
2022/12/01 03:39:22;;;;;;;2.00;1.60;;;;;;;7.16;100.00;99845.75;5073301;28;20560;-65
2022/12/01 03:41:53;;;;;;;1.60;1.60;;;;;;;7.24;100.00;99848.41;5072886;28;20204;-66
2022/12/01 03:44:24;;;;;;;2.00;2.00;;;;;;;7.23;100.00;99828.28;5072919;28;20190;-66
2022/12/01 03:46:55;;;;;;;1.60;1.60;;;;;;;7.32;100.00;99846.59;5072466;28;20184;-66
2022/12/01 03:49:25;;;;;;;1.57;1.57;;;;;;;7.39;100.00;99841.47;5072840;28;20192;-66
2022/12/01 03:52:07;;;;;;;1.47;1.47;;;;;;;7.33;100.00;99836.84;5071933;28;20623;-65
2022/12/01 03:54:48;;;;;;;2.07;1.97;;;;;;;7.17;100.00;99834.19;5072089;28;20214;-66
2022/12/01 03:57:20;;;;;;;2.00;1.90;;;;;;;7.10;100.00;99835.88;5071924;28;20183;-65
2022/12/01 03:59:48;;;;;;;3.23;3.07;;;;;;;7.20;100.00;99836.53;5071625;28;20241;-66
2022/12/01 04:02:15;;;;;;;1.83;1.83;;;;;;;7.24;100.00;99837.84;5072040;28;20215;-65
2022/12/01 04:04:43;;;;;;;7.83;7.10;;;;;;;7.15;100.00;99838.84;5071976;28;20199;-66
2022/12/01 04:07:12;;;;;;;2.97;2.77;;;;;;;6.96;100.00;99839.16;5083129;28;20248;-65
2022/12/01 04:09:39;;;;;;;3.20;3.00;;;;;;;7.08;100.00;99837.84;5092280;28;20191;-66
2022/12/01 04:14:50;;;;;;;2.40;2.30;;;;;;;7.07;100.00;99839.63;5092094;28;20325;-65
2022/12/01 04:17:17;;;;;;;1.90;1.80;;;;;;;7.17;100.00;99842.13;5091987;28;20191;-68
2022/12/01 04:19:45;;;;;;;2.37;2.27;;;;;;;7.29;100.00;99846.09;5093044;28;20188;-68
2022/12/01 04:22:12;;;;;;;2.13;2.03;;;;;;;7.24;100.00;99837.84;5091732;28;20781;-67
2022/12/01 04:24:38;;;;;;;5.13;4.63;;;;;;;7.28;100.00;99844.44;5096159;28;20256;-66
2022/12/01 04:27:05;;;;;;;2.43;2.33;;;;;;;7.33;100.00;99836.84;5095825;28;20276;-67
2022/12/01 04:29:32;;;;;;;2.10;2.00;;;;;;;7.26;100.00;99843.78;5094375;28;20195;-67
2022/12/01 04:31:59;;;;;;;2.20;2.10;;;;;;;7.18;100.00;99841.97;5076044;28;20196;-66
2022/12/01 04:34:25;;;;;;;1.70;1.60;;;;;;;7.08;100.00;99849.25;5076130;28;20188;-66
2022/12/01 04:36:54;;;;;;;1.70;1.60;;;;;;;7.07;100.00;99838.84;5075400;28;20199;-67
2022/12/01 04:39:20;;;;;;;1.90;1.90;;;;;;;7.05;100.00;99843.44;5075390;28;20665;-67
2022/12/01 04:41:47;;;;;;;1.97;1.87;;;;;;;7.15;100.00;99839.63;5075445;28;20196;-66
2022/12/01 04:44:14;;;;;;;1.90;1.80;;;;;;;7.00;100.00;99843.13;5075598;28;20188;-66
2022/12/01 04:46:41;;;;;;;1.80;1.80;;;;;;;7.01;100.00;99850.03;5075685;28;20227;-66
2022/12/01 04:49:07;;;;;;;1.57;1.57;;;;;;;7.02;100.00;99849.09;5075152;28;20276;-68
2022/12/01 04:51:34;;;;;;;2.10;2.00;;;;;;;7.12;100.00;99847.09;5074845;28;20197;-66
2022/12/01 04:54:04;;;;;;;1.70;1.70;;;;;;;7.13;100.00;99849.56;5074987;28;20621;-65
2022/12/01 04:56:31;;;;;;;1.63;1.63;;;;;;;7.22;100.00;99845.91;5077368;28;20214;-66
2022/12/01 04:58:58;;;;;;;1.97;1.87;;;;;;;7.16;100.00;99848.41;5076105;28;20187;-66
2022/12/01 05:01:25;;;;;;;1.50;1.50;;;;;;;7.13;100.00;99852.22;5074673;28;20226;-66
2022/12/01 05:03:52;;;;;;;1.63;1.63;;;;;;;7.13;100.00;99840.81;5075720;28;20219;-66
2022/12/01 05:06:21;;;;;;;2.00;1.90;;;;;;;7.11;100.00;99842.81;5078999;28;20186;-66
2022/12/01 05:08:48;;;;;;;2.10;2.00;;;;;;;7.16;100.00;99851.88;5094456;28;20194;-66
2022/12/01 05:11:18;;;;;;;1.70;1.60;;;;;;;7.20;100.00;99853.19;5092494;28;20610;-66
2022/12/01 05:13:47;;;;;;;2.00;1.80;;;;;;;7.13;100.00;99846.91;5074651;28;20351;-67
2022/12/01 05:16:15;;;;;;;2.23;2.03;;;;;;;7.15;100.00;99849.41;5074703;28;20196;-66
2022/12/01 05:18:42;;;;;;;2.27;2.17;;;;;;;7.23;100.00;99857.31;5074975;28;20284;-67
2022/12/01 05:21:09;;;;;;;2.43;2.20;;;;;;;7.18;100.00;99849.88;5074605;28;20226;-66
2022/12/01 05:23:37;;;;;;;2.57;2.37;;;;;;;7.22;100.00;99853.03;5074434;28;20311;-66
2022/12/01 05:26:06;;;;;;;3.83;2.60;;;;;;;7.31;100.00;99846.75;5074128;28;20243;-67
2022/12/01 05:28:35;;;;;;;2.10;2.00;;;;;;;7.26;100.00;99843.78;5074842;28;20191;-67
2022/12/01 05:31:02;;;;;;;2.27;2.17;;;;;;;7.25;100.00;99844.75;5088699;28;20199;-67
2022/12/01 05:33:29;;;;;;;2.20;2.10;;;;;;;7.25;100.00;99852.69;5094902;28;20199;-67
2022/12/01 05:35:56;;;;;;;2.07;1.97;;;;;;;7.33;100.00;99852.69;5092091;28;20254;-67
2022/12/01 05:38:22;;;;;;;2.10;2.00;;;;;;;7.41;100.00;99855.31;5074225;28;20191;-67
2022/12/01 05:40:51;;;;;;;3.57;3.27;;;;;;;7.31;100.00;99850.19;5072365;28;20196;-68
2022/12/01 05:43:18;;;;;;;2.50;2.30;;;;;;;7.39;100.00;99852.03;5072271;28;20314;-68
2022/12/01 05:45:46;;;;;;;2.33;2.23;;;;;;;7.35;100.00;99856.00;5073054;28;20679;-67
2022/12/01 05:48:12;;;;;;;2.40;2.30;;;;;;;7.36;100.00;99853.19;5072216;28;20188;-66
2022/12/01 05:50:39;;;;;;;2.20;2.10;;;;;;;7.34;100.00;99856.97;5074464;28;20253;-66
2022/12/01 05:53:06;;;;;;;2.27;2.10;;;;;;;7.44;100.00;99855.00;5074133;28;20560;-66
2022/12/01 05:55:33;;;;;;;1.83;1.73;;;;;;;7.45;100.00;99859.28;5074062;28;20259;-68
2022/12/01 05:58:00;;;;;;;1.90;1.80;;;;;;;7.50;100.00;99859.59;5073685;28;20583;-67
2022/12/01 06:00:27;;;;;;;1.67;1.57;;;;;;;7.47;100.00;99860.75;5073657;28;20622;-67
2022/12/01 06:02:55;;;;;;;1.70;1.60;;;;;;;7.53;100.00;99864.56;5073483;28;20219;-66
2022/12/01 06:05:21;;;;;;;1.30;1.30;;;;;;;7.51;100.00;99862.06;5073617;28;20238;-67
2022/12/01 06:07:48;;;;;;;1.50;1.50;;;;;;;7.39;100.00;99863.41;5073731;28;20192;-68
2022/12/01 06:10:15;;;;;;;1.40;1.40;;;;;;;7.17;100.00;99864.09;5073922;28;20250;-69
2022/12/01 06:12:41;;;;;;;1.80;1.70;;;;;;;7.06;100.00;99872.34;5073448;28;20200;-69
2022/12/01 06:15:11;;;;;;;1.50;1.50;;;;;;;6.99;100.00;99870.53;5084411;28;20240;-70
2022/12/01 06:17:37;;;;;;;2.40;1.90;;;;;;;6.73;100.00;99859.28;5093510;28;20708;-71
2022/12/01 06:20:08;;;;;;;1.80;1.70;;;;;;;6.81;100.00;99867.22;5094132;28;20190;-72
2022/12/01 06:22:34;;;;;;;1.60;1.50;;;;;;;6.83;100.00;99881.06;5082023;28;20756;-73
2022/12/01 06:25:01;;;;;;;1.70;1.60;;;;;;;6.85;100.00;99902.84;5073444;28;20203;-73
2022/12/01 06:27:28;;;;;;;1.67;1.57;;;;;;;6.83;100.00;99870.50;5073106;28;20207;-71
2022/12/01 06:29:54;;;;;;;1.53;1.53;;;;;;;6.78;100.00;99854.34;5078021;28;20225;-73
2022/12/01 06:32:21;;;;;;;2.10;2.00;;;;;;;6.92;100.00;99888.00;5093347;28;20248;-77
2022/12/01 06:34:48;;;;;;;2.23;2.13;;;;;;;6.84;100.00;99888.81;5093905;28;20620;-76
2022/12/01 06:37:16;;;;;;;2.50;2.40;;;;;;;6.92;100.00;99848.41;5093978;28;20195;-77
2022/12/01 06:39:43;;;;;;;2.20;2.10;;;;;;;7.44;100.00;99876.13;5071654;28;20202;-78
2022/12/01 06:42:10;;;;;;;2.60;2.40;;;;;;;7.39;100.00;99870.53;5073286;28;20273;-74
2022/12/01 06:44:37;;;;;;;2.63;2.53;;;;;;;7.45;100.00;99881.25;5073087;28;20207;-70
2022/12/01 06:47:04;;;;;;;2.30;2.20;;;;;;;7.27;100.00;99890.34;5085920;28;20593;-73
2022/12/01 06:49:31;;;;;;;2.73;2.53;;;;;;;7.23;100.00;99889.03;5093362;28;20225;-73
2022/12/01 06:51:58;;;;;;;2.50;2.30;;;;;;;7.29;100.00;99888.34;5093007;28;20655;-81
2022/12/01 06:54:26;;;;;;;2.10;2.00;;;;;;;7.20;100.00;99890.19;5093408;28;20253;-81
2022/12/01 06:56:52;;;;;;;2.87;2.70;;;;;;;7.28;100.00;99887.53;5093192;28;20733;-78
2022/12/01 06:59:19;;;;;;;2.80;2.60;;;;;;;7.29;100.00;99872.50;5093331;28;20249;-76
2022/12/01 07:01:46;;;;;;;2.83;2.63;;;;;;;7.40;100.00;99880.09;5087744;28;20232;-73
2022/12/01 07:04:13;;;;;;;3.93;3.73;;;;;;;7.40;100.00;99890.66;5072826;28;20307;-75
2022/12/01 07:06:39;;;;;;;3.70;3.40;;;;;;;7.44;100.00;99887.53;5079512;28;20199;-74
2022/12/01 07:09:06;;;;;;;3.83;3.53;;;;;;;7.40;100.00;99883.59;5092776;28;20750;-78
2022/12/01 07:11:35;;;;;;;3.80;3.50;;;;;;;7.40;100.00;99878.28;5093896;28;20254;-77
2022/12/01 07:14:03;;;;;;;3.80;3.60;;;;;;;7.33;100.00;99887.03;5092899;28;20577;-76
2022/12/01 07:16:30;;;;;;;10.17;6.70;;;;;;;7.29;100.00;99893.63;5092941;28;20195;-78
2022/12/01 07:18:58;;;;;;;6.60;6.07;;;;;;;7.36;100.00;99887.53;5093315;28;20277;-77
2022/12/01 07:21:25;;;;;;;5.30;4.80;;;;;;;7.47;100.00;99891.66;5092900;28;20282;-75
2022/12/01 07:23:52;;;;;;;4.53;4.23;;;;;;;7.45;100.00;99891.81;5092413;28;20218;-78
2022/12/01 07:26:18;;;;;;;2.97;2.70;;;;;;;7.42;100.00;99880.75;5092798;28;20260;-74
2022/12/01 07:28:46;;;;;;;2.83;2.20;;;;;;;7.45;100.00;99885.72;5092739;28;20645;-73
2022/12/01 07:31:15;;;;;;;3.17;2.87;;;;;;;7.48;100.00;99882.75;5092459;28;20194;-73
2022/12/01 07:33:42;;;;;;;3.67;3.40;;;;;;;7.28;100.00;99886.72;5092206;28;20667;-73
2022/12/01 07:36:10;;;;;;;4.17;3.80;;;;;;;7.25;100.00;99892.31;5093213;28;20264;-76
2022/12/01 07:38:38;;;;;;;4.13;3.73;;;;;;;7.32;100.00;99898.59;5092707;28;20287;-75
2022/12/01 07:41:07;;;;;;;5.30;3.53;;;;;;;7.36;100.00;99894.63;5092222;28;20195;-72
2022/12/01 07:43:34;;;;;;;7.73;4.47;;;;;;;7.38;100.00;99892.63;5092403;28;20282;-75
2022/12/01 07:46:07;;;;;;;12.17;7.60;;;;;;;7.36;100.00;99894.63;5092227;28;20289;-74
2022/12/01 07:48:34;;;;;;;13.03;6.53;;;;;;;7.34;100.00;99896.59;5092669;28;20183;-78
2022/12/01 07:51:01;;;;;;;3.93;3.63;;;;;;;7.39;100.00;99907.53;5093011;28;20195;-79
2022/12/01 07:53:28;;;;;;;9.50;6.73;;;;;;;7.41;100.00;99902.88;5089144;28;20208;-78
2022/12/01 07:55:54;;;;;;;5.33;4.83;;;;;;;7.24;100.00;99890.66;5072356;28;20221;-79
2022/12/01 07:58:21;;;;;;;3.97;3.53;;;;;;;7.13;100.00;99898.91;5072142;28;20188;-76
2022/12/01 08:00:48;;;;;;;7.90;5.33;;;;;;;7.20;100.00;99889.34;5072075;28;20664;-80
2022/12/01 08:03:16;;;;;;;17.17;9.10;;;;;;;7.26;100.00;99899.28;5072056;28;20223;-74
2022/12/01 08:05:42;;;;;;;4.33;4.03;;;;;;;7.27;100.00;99906.22;5072990;28;20188;-76
2022/12/01 08:08:09;;;;;;;7.50;4.80;;;;;;;7.27;100.00;99901.72;5090878;28;20682;-75
2022/12/01 08:10:36;;;;;;;21.37;10.37;;;;;;;7.12;100.00;99899.91;5091945;28;20257;-76
2022/12/01 08:13:03;;;;;;;41.47;15.23;;;;;;;7.25;100.00;99898.44;5091754;28;20202;-76
2022/12/01 08:15:30;;;;;;;34.70;12.53;;;;;;;7.23;100.00;99905.69;5087897;28;20241;-78
2022/12/01 08:18:01;;;;;;;33.87;10.53;;;;;;;7.17;100.00;99900.25;5090820;28;20307;-79
2022/12/01 08:20:29;;;;;;;37.23;14.27;;;;;;;7.26;100.00;99904.56;5082223;28;20564;-78
2022/12/01 08:22:55;;;;;;;60.50;18.87;;;;;;;7.28;100.00;99907.84;5071091;28;20277;-78
2022/12/01 08:25:22;;;;;;;37.67;13.97;;;;;;;6.93;100.00;99882.56;5087187;28;20743;-77
2022/12/01 08:27:49;;;;;;;19.77;9.50;;;;;;;7.12;100.00;99906.03;5092392;28;20187;-77
2022/12/01 08:30:16;;;;;;;19.13;9.90;;;;;;;7.23;100.00;99899.59;5084203;28;20266;-73
2022/12/01 08:32:42;;;;;;;22.80;12.37;;;;;;;7.20;100.00;99899.91;5077470;28;20666;-76
2022/12/01 08:35:09;;;;;;;25.90;13.43;;;;;;;7.20;100.00;99886.72;5074091;28;20248;-73
2022/12/01 08:37:37;;;;;;;5.90;5.40;;;;;;;7.35;100.00;99887.72;5091723;28;20227;-76
2022/12/01 08:40:05;;;;;;;6.10;4.00;;;;;;;7.39;100.00;99889.84;5091455;28;20203;-72
2022/12/01 08:42:32;;;;;;;16.47;9.60;;;;;;;7.32;100.00;99882.75;5091607;28;20195;-73
2022/12/01 08:44:59;;;;;;;12.57;9.10;;;;;;;7.48;100.00;99888.03;5091974;28;20227;-74
2022/12/01 08:47:27;;;;;;;4.13;3.73;;;;;;;7.57;100.00;99887.03;5091768;28;20195;-72
2022/12/01 08:49:54;;;;;;;3.70;3.40;;;;;;;7.51;100.00;99874.50;5091437;28;20206;-73
2022/12/01 08:52:21;;;;;;;7.17;4.87;;;;;;;7.54;100.00;99887.34;5091817;28;20244;-74
2022/12/01 08:54:49;;;;;;;3.67;3.37;;;;;;;7.57;100.00;99885.22;5091657;28;20199;-74
2022/12/01 08:57:17;;;;;;;3.17;2.97;;;;;;;7.67;100.00;99871.81;5091036;28;20248;-76
2022/12/01 08:59:44;;;;;;;3.27;3.07;;;;;;;7.70;100.00;99879.41;5091123;28;20199;-73
2022/12/01 09:02:14;;;;;;;4.17;3.70;;;;;;;7.75;100.00;99879.72;5091378;28;20627;-74
2022/12/01 09:04:41;;;;;;;2.83;2.63;;;;;;;7.71;100.00;99857.25;5083362;28;20221;-72
2022/12/01 09:07:10;;;;;;;5.13;3.37;;;;;;;7.84;100.00;99878.72;5081035;28;20195;-74
2022/12/01 09:09:37;;;;;;;3.47;3.27;;;;;;;7.92;100.00;99862.84;5087532;28;20199;-73
2022/12/01 09:12:06;;;;;;;4.10;3.50;;;;;;;8.01;100.00;99875.03;5088706;28;20198;-71
2022/12/01 09:14:37;;;;;;;2.93;2.73;;;;;;;7.84;100.00;99868.94;5093993;28;20282;-79
2022/12/01 09:17:04;;;;;;;4.20;3.90;;;;;;;7.83;100.00;99861.19;5095131;28;20191;-75
2022/12/01 09:19:30;;;;;;;5.57;4.53;;;;;;;7.91;100.00;99863.81;5095105;28;20242;-72
2022/12/01 09:21:57;;;;;;;3.40;3.20;;;;;;;7.89;100.00;99861.34;5094880;28;20262;-70
2022/12/01 09:24:24;;;;;;;4.50;4.10;;;;;;;8.03;100.00;99859.78;5084779;28;20269;-71
2022/12/01 09:26:55;;;;;;;5.13;3.33;;;;;;;8.09;100.00;99851.19;5074386;28;20717;-72
2022/12/01 09:29:23;;;;;;;5.30;4.80;;;;;;;8.24;100.00;99854.78;5075561;28;20192;-73
2022/12/01 09:31:50;;;;;;;4.13;3.67;;;;;;;8.32;100.00;99857.38;5094920;28;20195;-74
2022/12/01 09:34:19;;;;;;;6.37;5.77;;;;;;;8.37;100.00;99852.44;5094862;28;20198;-74
2022/12/01 09:36:46;;;;;;;8.67;6.47;;;;;;;8.30;100.00;99854.09;5094562;28;20244;-74
2022/12/01 09:39:15;;;;;;;8.07;6.33;;;;;;;8.38;100.00;99840.84;5094668;28;20195;-74
2022/12/01 09:41:47;;;;;;;11.70;8.40;;;;;;;8.40;100.00;99844.13;5096117;28;20202;-75
2022/12/01 09:44:21;;;;;;;8.87;7.97;;;;;;;8.52;99.95;99848.03;5094259;28;20683;-73
2022/12/01 09:46:55;;;;;;;5.60;4.80;;;;;;;8.46;99.65;99843.44;5094547;28;20563;-69
2022/12/01 09:49:24;;;;;;;3.77;3.53;;;;;;;8.40;99.67;99833.53;5094967;28;20221;-71
2022/12/01 09:51:53;;;;;;;4.63;4.23;;;;;;;8.52;99.78;99832.97;5094210;28;20203;-71
2022/12/01 09:54:21;;;;;;;6.03;4.80;;;;;;;8.53;99.92;99836.47;5094137;28;20286;-71
2022/12/01 09:56:51;;;;;;;19.50;10.47;;;;;;;8.29;99.28;99836.59;5094490;28;20191;-71
2022/12/01 09:59:22;;;;;;;6.47;5.87;;;;;;;8.46;99.58;99838.94;5094534;28;20286;-75
2022/12/01 10:01:53;;;;;;;4.27;4.07;;;;;;;8.44;100.00;99816.31;5087381;28;20192;-74
2022/12/01 10:04:28;;;;;;;4.07;3.87;;;;;;;8.56;99.46;99836.91;5073013;28;20200;-75
2022/12/01 10:06:59;;;;;;;4.80;4.53;;;;;;;8.50;98.84;99836.81;5077938;28;20232;-72
2022/12/01 10:09:34;;;;;;;4.07;3.77;;;;;;;8.56;100.00;99833.44;5094221;28;20278;-74
2022/12/01 10:12:11;;;;;;;3.50;3.30;;;;;;;8.46;99.42;99833.66;5093992;28;20658;-73
2022/12/01 10:14:38;;;;;;;4.07;3.83;;;;;;;8.43;99.49;99831.38;5075124;28;20191;-76
2022/12/01 10:17:21;;;;;;;4.73;4.43;;;;;;;8.46;100.00;99822.25;5073584;28;20192;-73
2022/12/01 10:20:01;;;;;;;5.53;5.03;;;;;;;8.55;100.00;99831.78;5073774;28;20605;-76
2022/12/01 10:22:53;;;;;;;4.63;4.33;;;;;;;8.49;100.00;99806.03;5090357;28;20187;-71
2022/12/01 10:25:22;;;;;;;4.20;3.90;;;;;;;8.57;99.82;99813.91;5075750;28;20208;-76
2022/12/01 10:28:04;;;;;;;5.07;4.77;;;;;;;8.57;99.70;99824.50;5073763;28;20196;-76
2022/12/01 10:30:37;;;;;;;5.90;5.40;;;;;;;8.61;99.67;99823.13;5083147;28;20194;-76
2022/12/01 10:33:16;;;;;;;5.80;5.40;;;;;;;8.66;99.99;99831.41;5093452;28;20191;-75
2022/12/01 10:35:43;;;;;;;5.17;4.77;;;;;;;8.69;100.00;99823.94;5093145;28;20704;-74
2022/12/01 10:38:20;;;;;;;5.87;5.37;;;;;;;8.67;100.00;99825.09;5093485;28;20264;-76
2022/12/01 10:40:49;;;;;;;4.57;4.17;;;;;;;8.46;99.78;99822.25;5093338;28;20309;-75
2022/12/01 10:43:16;;;;;;;8.80;5.17;;;;;;;8.51;100.00;99814.63;5092996;28;20194;-73
2022/12/01 10:45:44;;;;;;;9.53;5.60;;;;;;;8.51;100.00;99809.31;5093642;28;20195;-75
2022/12/01 10:48:16;;;;;;;7.77;4.87;;;;;;;8.61;100.00;99809.91;5093376;28;20191;-81
2022/12/01 10:50:45;;;;;;;7.70;6.87;;;;;;;8.62;99.76;99806.28;5093587;28;20708;-79
2022/12/01 10:53:35;;;;;;;5.40;5.00;;;;;;;8.66;100.00;99812.88;5093571;28;20202;-83
2022/12/01 10:56:05;;;;;;;17.53;11.13;;;;;;;8.64;100.00;99815.69;5093234;28;20184;-80
2022/12/01 10:58:39;;;;;;;8.70;7.40;;;;;;;8.64;100.00;99809.56;5093398;28;20241;-83
2022/12/01 11:01:06;;;;;;;4.30;4.00;;;;;;;8.68;99.16;99803.75;5093506;28;20192;-77
2022/12/01 11:03:36;;;;;;;6.97;4.17;;;;;;;8.63;99.58;99799.97;5093643;28;20190;-77
2022/12/01 11:06:06;;;;;;;5.83;5.33;;;;;;;8.68;100.00;99810.84;5091484;28;20543;-82
2022/12/01 11:08:38;;;;;;;5.50;5.00;;;;;;;8.67;99.79;99801.28;5073289;28;20234;-78
2022/12/01 11:11:05;;;;;;;7.83;6.70;;;;;;;8.74;99.92;99799.56;5072455;28;20192;-77
2022/12/01 11:13:35;;;;;;;5.20;3.83;;;;;;;8.56;98.79;99801.66;5081410;28;20195;-78
2022/12/01 11:16:04;;;;;;;3.80;3.50;;;;;;;8.62;99.29;99803.63;5093663;28;20195;-82
2022/12/01 11:18:33;;;;;;;3.47;2.97;;;;;;;8.70;99.87;99806.22;5092766;28;20689;-76
2022/12/01 11:21:11;;;;;;;5.87;5.37;;;;;;;8.73;99.73;99804.03;5075522;28;20196;-77
2022/12/01 11:23:44;;;;;;;7.00;5.97;;;;;;;8.77;99.43;99791.25;5069915;28;20184;-76
2022/12/01 11:26:14;;;;;;;5.97;5.43;;;;;;;8.78;99.05;99795.56;5070246;28;20241;-75
2022/12/01 11:28:51;;;;;;;4.57;4.27;;;;;;;8.81;98.59;99789.91;5072985;28;20282;-78
2022/12/01 11:31:19;;;;;;;4.87;4.50;;;;;;;8.85;99.30;99793.84;5088626;28;20253;-77
2022/12/01 11:33:51;;;;;;;5.57;5.10;;;;;;;8.76;98.50;99779.03;5091321;28;20696;-78
2022/12/01 11:36:33;;;;;;;4.43;4.10;;;;;;;8.56;98.87;99793.72;5091595;28;20189;-77
2022/12/01 11:39:01;;;;;;;4.70;4.40;;;;;;;8.52;98.81;99792.44;5091618;28;20187;-79
2022/12/01 11:41:39;;;;;;;5.83;5.40;;;;;;;8.59;99.40;99780.97;5090909;28;20187;-77
2022/12/01 11:44:17;;;;;;;6.17;5.03;;;;;;;8.75;99.69;99793.28;5092695;28;20207;-78
2022/12/01 11:46:45;;;;;;;4.87;4.23;;;;;;;8.79;98.86;99791.91;5091509;28;20182;-78
2022/12/01 11:49:17;;;;;;;5.43;4.93;;;;;;;8.54;98.64;99771.91;5093128;28;20191;-78